createdAt,value
2022-10-04T00:01:45.036Z,99.90
2022-10-04T00:04:21.575Z,99.90
2022-10-04T00:07:07.257Z,99.90
2022-10-04T00:09:58.082Z,99.90
2022-10-04T00:12:35.154Z,99.90
2022-10-04T00:15:25.830Z,99.90
2022-10-04T00:18:08.002Z,99.90
2022-10-04T00:20:53.588Z,99.90
2022-10-04T00:23:23.297Z,99.90
2022-10-04T00:25:53.062Z,99.90
2022-10-04T00:28:20.019Z,99.90
2022-10-04T00:31:14.339Z,99.90
2022-10-04T00:34:03.886Z,99.90
2022-10-04T00:36:37.929Z,99.90
2022-10-04T00:39:07.731Z,99.90
2022-10-04T00:41:48.009Z,99.90
2022-10-04T00:44:33.817Z,99.90
2022-10-04T00:47:04.030Z,99.90
2022-10-04T00:49:39.298Z,99.90
2022-10-04T00:52:15.983Z,99.90
2022-10-04T00:54:50.272Z,99.90
2022-10-04T00:57:28.922Z,99.90
2022-10-04T01:00:03.803Z,99.90
2022-10-04T01:02:44.278Z,99.90
2022-10-04T01:05:17.699Z,99.90
2022-10-04T01:07:50.243Z,99.90
2022-10-04T01:11:00.271Z,99.90
2022-10-04T01:14:08.082Z,99.90
2022-10-04T01:16:38.990Z,99.90
2022-10-04T01:19:26.757Z,99.90
2022-10-04T01:22:05.686Z,99.90
2022-10-04T01:24:38.901Z,99.90
2022-10-04T01:27:44.524Z,99.90
2022-10-04T01:30:16.740Z,99.90
2022-10-04T01:32:45.350Z,99.90
2022-10-04T01:35:15.686Z,99.90
2022-10-04T01:37:42.638Z,99.90
2022-10-04T01:40:11.167Z,99.90
2022-10-04T01:42:56.548Z,99.90
2022-10-04T01:45:45.656Z,99.90
2022-10-04T01:48:19.273Z,99.90
2022-10-04T01:51:20.112Z,99.90
2022-10-04T01:54:04.130Z,99.90
2022-10-04T01:56:42.454Z,99.90
2022-10-04T01:59:20.204Z,99.90
2022-10-04T02:01:57.215Z,99.90
2022-10-04T02:04:32.791Z,99.90
2022-10-04T02:07:01.977Z,99.90
2022-10-04T02:09:38.879Z,99.90
2022-10-04T02:12:06.909Z,99.90
2022-10-04T02:14:35.295Z,99.90
2022-10-04T02:17:09.166Z,99.90
2022-10-04T02:19:40.931Z,99.90
2022-10-04T02:22:11.191Z,99.90
2022-10-04T02:24:43.622Z,99.90
2022-10-04T02:27:11.134Z,99.90
2022-10-04T02:29:38.333Z,99.90
2022-10-04T02:32:28.200Z,99.90
2022-10-04T02:34:56.786Z,99.90
2022-10-04T02:37:26.469Z,99.90
2022-10-04T02:40:12.796Z,99.90
2022-10-04T02:43:00.559Z,99.90
2022-10-04T02:45:41.483Z,99.90
2022-10-04T02:48:28.861Z,99.90
2022-10-04T02:51:11.748Z,99.90
2022-10-04T02:54:11.705Z,99.90
2022-10-04T02:56:39.146Z,99.90
2022-10-04T02:59:07.492Z,99.90
2022-10-04T03:01:56.320Z,99.90
2022-10-04T03:04:34.086Z,99.90
2022-10-04T03:07:05.650Z,99.90
2022-10-04T03:09:33.166Z,99.90
2022-10-04T03:12:00.447Z,99.90
2022-10-04T03:14:28.846Z,99.90
2022-10-04T03:17:00.724Z,99.90
2022-10-04T03:19:31.703Z,99.90
2022-10-04T03:22:03.944Z,99.90
2022-10-04T03:24:47.127Z,99.90
2022-10-04T03:27:24.949Z,99.90
2022-10-04T03:29:56.842Z,99.90
2022-10-04T03:32:27.184Z,99.90
2022-10-04T03:35:02.222Z,99.90
2022-10-04T03:37:32.151Z,99.90
2022-10-04T03:39:59.857Z,99.90
2022-10-04T03:42:34.890Z,99.90
2022-10-04T03:45:15.857Z,99.90
2022-10-04T03:47:46.348Z,99.90
2022-10-04T03:50:28.099Z,99.90
2022-10-04T03:53:03.525Z,99.90
2022-10-04T03:55:45.986Z,99.90
2022-10-04T03:58:18.140Z,99.90
2022-10-04T04:01:05.644Z,99.90
2022-10-04T04:04:02.656Z,99.90
2022-10-04T04:06:56.217Z,99.90
2022-10-04T04:09:40.334Z,99.90
2022-10-04T04:12:18.762Z,99.90
2022-10-04T04:14:50.537Z,99.90
2022-10-04T04:17:27.295Z,99.90
2022-10-04T04:19:58.291Z,99.90
2022-10-04T04:22:31.209Z,99.90
2022-10-04T04:25:04.830Z,99.90
2022-10-04T04:27:37.147Z,99.90
2022-10-04T04:30:06.669Z,99.90
2022-10-04T04:32:41.519Z,99.90
2022-10-04T04:35:32.147Z,99.90
2022-10-04T04:38:23.008Z,99.90
2022-10-04T04:40:55.482Z,99.90
2022-10-04T04:43:26.979Z,99.90
2022-10-04T04:46:22.329Z,99.90
2022-10-04T04:48:47.967Z,99.90
2022-10-04T04:51:22.196Z,99.90
2022-10-04T04:53:51.192Z,99.90
2022-10-04T04:56:21.531Z,99.90
2022-10-04T04:58:51.262Z,99.90
2022-10-04T05:01:32.114Z,99.90
2022-10-04T05:04:03.041Z,99.90
2022-10-04T05:06:32.627Z,99.90
2022-10-04T05:08:59.790Z,99.90
2022-10-04T05:11:34.257Z,99.90
2022-10-04T05:14:11.545Z,99.90
2022-10-04T05:16:53.113Z,99.90
2022-10-04T05:19:34.377Z,99.90
2022-10-04T05:22:08.676Z,99.90
2022-10-04T05:24:40.566Z,99.90
2022-10-04T05:27:19.278Z,99.90
2022-10-04T05:30:07.674Z,99.90
2022-10-04T05:33:08.227Z,99.90
2022-10-04T05:36:12.199Z,99.90
2022-10-04T05:39:09.710Z,99.90
2022-10-04T05:41:58.404Z,99.90
2022-10-04T05:44:58.344Z,99.90
2022-10-04T05:47:30.643Z,99.90
2022-10-04T05:50:00.926Z,99.90
2022-10-04T05:52:34.552Z,99.90
2022-10-04T05:55:27.330Z,99.90
2022-10-04T05:58:03.044Z,99.90
2022-10-04T06:00:51.232Z,99.90
2022-10-04T06:03:36.805Z,99.90
2022-10-04T06:06:27.565Z,99.90
2022-10-04T06:09:29.635Z,99.90
2022-10-04T06:12:47.333Z,99.90
2022-10-04T06:16:01.211Z,99.90
2022-10-04T06:19:09.405Z,99.90
2022-10-04T06:22:13.799Z,99.90
2022-10-04T06:24:45.251Z,99.90
2022-10-04T06:27:26.600Z,99.90
2022-10-04T06:30:07.367Z,99.90
2022-10-04T06:32:59.669Z,99.90
2022-10-04T06:35:49.339Z,99.90
2022-10-04T06:38:26.787Z,99.90
2022-10-04T06:41:40.041Z,99.90
2022-10-04T06:44:48.908Z,99.90
2022-10-04T06:48:08.604Z,99.90
2022-10-04T06:51:02.545Z,99.90
2022-10-04T06:54:20.349Z,99.90
2022-10-04T06:57:18.903Z,99.90
2022-10-04T07:00:15.354Z,99.90
2022-10-04T07:03:17.409Z,99.90
2022-10-04T07:06:01.767Z,99.90
2022-10-04T07:08:51.334Z,99.90
2022-10-04T07:11:27.052Z,99.90
2022-10-04T07:14:11.407Z,99.90
2022-10-04T07:16:55.953Z,99.90
2022-10-04T07:19:40.226Z,99.90
2022-10-04T07:22:07.021Z,99.90
2022-10-04T07:25:12.472Z,99.90
2022-10-04T07:28:14.457Z,99.90
2022-10-04T07:31:17.165Z,99.90
2022-10-04T07:34:21.401Z,99.90
2022-10-04T07:36:53.687Z,99.90
2022-10-04T07:40:14.840Z,99.90
2022-10-04T07:42:53.268Z,99.90
2022-10-04T07:45:30.272Z,99.90
2022-10-04T07:48:14.749Z,99.90
2022-10-04T07:51:03.891Z,99.90
2022-10-04T07:53:44.003Z,99.90
2022-10-04T07:56:16.312Z,99.90
2022-10-04T07:59:24.734Z,99.90
2022-10-04T08:02:26.592Z,99.90
2022-10-04T08:05:22.098Z,99.90
2022-10-04T08:08:14.119Z,99.90
2022-10-04T08:11:43.477Z,99.90
2022-10-04T08:14:45.605Z,99.90
2022-10-04T08:17:44.912Z,99.90
2022-10-04T08:20:24.676Z,99.90
2022-10-04T08:23:32.435Z,99.90
2022-10-04T08:26:52.040Z,99.90
2022-10-04T08:30:02.679Z,99.90
2022-10-04T08:32:33.321Z,99.90
2022-10-04T08:35:21.953Z,99.90
2022-10-04T08:38:22.457Z,99.90
2022-10-04T08:41:08.552Z,99.90
2022-10-04T08:44:33.045Z,99.90
2022-10-04T08:47:21.985Z,99.90
2022-10-04T08:50:25.752Z,99.90
2022-10-04T08:53:21.945Z,99.90
2022-10-04T08:56:44.281Z,99.90
2022-10-04T08:59:24.631Z,99.90
2022-10-04T09:02:37.817Z,99.90
2022-10-04T09:05:34.758Z,99.90
2022-10-04T09:09:12.240Z,99.90
2022-10-04T09:11:44.896Z,99.90
2022-10-04T09:15:06.440Z,99.90
2022-10-04T09:17:36.334Z,99.90
2022-10-04T09:20:38.634Z,99.90
2022-10-04T09:23:42.154Z,99.90
2022-10-04T09:26:21.170Z,99.90
2022-10-04T09:29:42.364Z,99.90
2022-10-04T09:32:38.742Z,99.90
2022-10-04T09:35:24.301Z,99.90
2022-10-04T09:38:15.567Z,99.90
2022-10-04T09:41:08.544Z,99.90
2022-10-04T09:43:59.082Z,99.90
2022-10-04T09:46:37.989Z,99.90
2022-10-04T09:49:32.749Z,99.90
2022-10-04T09:52:39.970Z,99.90
2022-10-04T09:55:36.292Z,99.90
2022-10-04T09:58:43.369Z,99.90
2022-10-04T10:01:29.578Z,99.90
2022-10-04T10:04:39.665Z,99.90
2022-10-04T10:07:25.966Z,99.90
2022-10-04T10:10:34.899Z,99.90
2022-10-04T10:13:32.297Z,99.90
2022-10-04T10:16:12.315Z,99.90
2022-10-04T10:19:21.516Z,99.90
2022-10-04T10:22:15.534Z,99.90
2022-10-04T10:25:25.760Z,99.90
2022-10-04T10:28:33.211Z,99.90
2022-10-04T10:31:24.290Z,99.90
2022-10-04T10:34:06.197Z,99.90
2022-10-04T10:36:44.700Z,99.90
2022-10-04T10:39:38.904Z,99.90
2022-10-04T10:42:27.570Z,99.90
2022-10-04T10:45:14.969Z,99.90
2022-10-04T10:48:01.892Z,99.90
2022-10-04T10:50:59.128Z,99.90
2022-10-04T10:53:31.778Z,99.90
2022-10-04T10:56:18.921Z,99.90
2022-10-04T10:59:05.726Z,99.90
2022-10-04T11:02:05.781Z,99.90
2022-10-04T11:05:22.774Z,99.90
2022-10-04T11:07:54.104Z,99.90
2022-10-04T11:10:33.453Z,99.90
2022-10-04T11:13:39.316Z,99.90
2022-10-04T11:16:35.294Z,99.90
2022-10-04T11:19:33.242Z,99.90
2022-10-04T11:22:20.506Z,99.90
2022-10-04T11:25:43.713Z,99.90
2022-10-04T11:28:31.675Z,99.90
2022-10-04T11:31:53.588Z,99.90
2022-10-04T11:34:32.126Z,99.90
2022-10-04T11:37:43.699Z,99.90
2022-10-04T11:40:21.398Z,99.90
2022-10-04T11:43:38.556Z,99.90
2022-10-04T11:46:14.317Z,99.90
2022-10-04T11:49:21.577Z,99.90
2022-10-04T11:52:17.676Z,99.90
2022-10-04T11:55:53.964Z,99.90
2022-10-04T11:58:35.160Z,99.90
2022-10-04T12:01:01.905Z,99.90
2022-10-04T12:04:13.731Z,99.90
2022-10-04T12:07:06.854Z,99.90
2022-10-04T12:10:04.670Z,99.90
2022-10-04T12:12:53.350Z,99.90
2022-10-04T12:16:13.003Z,99.90
2022-10-04T12:19:05.268Z,99.90
2022-10-04T12:21:43.798Z,99.90
2022-10-04T12:24:58.752Z,99.90
2022-10-04T12:27:59.646Z,99.90
2022-10-04T12:30:46.501Z,99.90
2022-10-04T12:33:21.965Z,99.90
2022-10-04T12:36:19.452Z,99.90
2022-10-04T12:44:38.688Z,99.90
2022-10-04T12:47:58.330Z,99.90
2022-10-04T12:50:55.291Z,99.90
2022-10-04T12:53:41.261Z,99.90
2022-10-04T12:56:33.653Z,99.90
2022-10-04T12:59:30.754Z,99.90
2022-10-04T13:02:31.180Z,99.90
2022-10-04T13:05:13.157Z,99.90
2022-10-04T13:08:04.035Z,99.90
2022-10-04T13:10:49.630Z,99.90
2022-10-04T13:13:41.132Z,99.90
2022-10-04T13:19:54.870Z,98.60
2022-10-04T13:22:57.378Z,96.20
2022-10-04T13:25:48.818Z,95.30
2022-10-04T13:28:54.800Z,95.00
2022-10-04T13:31:32.962Z,94.00
2022-10-04T13:34:20.661Z,92.80
2022-10-04T13:37:37.445Z,91.60
2022-10-04T13:40:50.908Z,92.40
2022-10-04T13:43:59.153Z,91.30
2022-10-04T13:46:29.594Z,90.60
2022-10-04T13:49:11.631Z,90.00
2022-10-04T13:52:44.748Z,90.10
2022-10-04T13:55:41.682Z,87.70
2022-10-04T13:58:45.559Z,84.40
2022-10-04T14:01:37.373Z,83.20
2022-10-04T14:04:20.759Z,84.20
2022-10-04T14:07:24.617Z,83.20
2022-10-04T14:10:14.016Z,82.80
2022-10-04T14:13:24.675Z,82.70
2022-10-04T14:16:45.249Z,82.70
2022-10-04T14:19:49.092Z,79.10
2022-10-04T14:22:45.387Z,79.20
2022-10-04T14:25:38.512Z,78.80
2022-10-04T14:29:13.532Z,80.10
2022-10-04T14:32:10.513Z,78.70
2022-10-04T14:34:57.187Z,77.30
2022-10-04T14:38:00.666Z,77.10
2022-10-04T14:40:45.522Z,76.10
2022-10-04T14:44:01.932Z,77.60
2022-10-04T14:46:35.414Z,76.50
2022-10-04T14:50:08.196Z,77.00
2022-10-04T14:52:59.296Z,78.00
2022-10-04T14:55:38.256Z,77.90
2022-10-04T14:58:51.784Z,78.70
2022-10-04T15:01:22.607Z,78.00
2022-10-04T15:04:17.238Z,76.40
2022-10-04T15:07:17.611Z,76.40
2022-10-04T15:10:01.424Z,75.80
2022-10-04T15:12:58.453Z,75.60
2022-10-04T15:16:01.006Z,76.60
2022-10-04T15:18:48.527Z,76.50
2022-10-04T15:21:33.065Z,74.90
2022-10-04T15:24:23.980Z,74.80
2022-10-04T15:27:28.379Z,74.90
2022-10-04T15:30:32.439Z,75.80
2022-10-04T15:33:34.736Z,77.30
2022-10-04T15:36:01.691Z,76.90
2022-10-04T15:38:43.601Z,75.70
2022-10-04T15:41:46.140Z,75.90
2022-10-04T15:44:52.857Z,77.00
2022-10-04T15:47:35.676Z,78.90
2022-10-04T15:50:36.561Z,79.20
2022-10-04T15:53:17.500Z,79.20
2022-10-04T15:56:01.953Z,78.30
2022-10-04T15:58:59.036Z,79.60
2022-10-04T16:01:45.976Z,80.10
2022-10-04T16:04:50.259Z,80.70
2022-10-04T16:07:59.192Z,80.60
2022-10-04T16:10:58.559Z,82.80
2022-10-04T16:14:05.934Z,82.50
2022-10-04T16:16:39.894Z,82.70
2022-10-04T16:19:25.151Z,83.80
2022-10-04T16:22:28.076Z,84.80
2022-10-04T16:24:59.759Z,86.50
2022-10-04T16:27:46.186Z,90.00
2022-10-04T16:30:28.160Z,92.20
2022-10-04T16:32:58.518Z,94.20
2022-10-04T16:38:16.584Z,97.70
2022-10-04T16:40:52.598Z,99.90
2022-10-04T16:43:19.493Z,99.90
2022-10-04T16:48:52.787Z,99.90
2022-10-04T16:51:42.201Z,99.90
2022-10-04T16:54:36.908Z,99.90
2022-10-04T16:57:15.995Z,99.90
2022-10-04T16:59:54.140Z,99.90
2022-10-04T17:02:40.163Z,99.90
2022-10-04T17:05:39.792Z,99.90
2022-10-04T17:08:15.621Z,99.90
2022-10-04T17:11:29.145Z,99.90
2022-10-04T17:16:57.832Z,99.90
2022-10-04T17:23:29.214Z,99.90
2022-10-04T17:26:14.637Z,99.90
2022-10-04T17:28:56.823Z,99.90
2022-10-04T17:31:48.706Z,99.90
2022-10-04T17:34:42.734Z,99.90
2022-10-04T17:37:37.632Z,99.90
2022-10-04T17:40:13.592Z,99.90
2022-10-04T17:42:53.022Z,99.90
2022-10-04T17:45:43.974Z,99.90
2022-10-04T17:49:28.238Z,99.90
2022-10-04T17:52:21.192Z,99.90
2022-10-04T17:55:17.346Z,99.90
2022-10-04T17:58:11.460Z,99.90
2022-10-04T18:00:59.826Z,99.90
2022-10-04T18:03:40.791Z,99.90
2022-10-04T18:06:29.934Z,99.90
2022-10-04T18:09:22.774Z,99.90
2022-10-04T18:12:02.241Z,99.90
2022-10-04T18:14:58.152Z,99.90
2022-10-04T18:17:48.809Z,99.90
2022-10-04T18:20:53.125Z,99.90
2022-10-04T18:23:39.253Z,99.90
2022-10-04T18:26:18.286Z,99.90
2022-10-04T18:28:47.506Z,99.90
2022-10-04T18:31:23.462Z,99.90
2022-10-04T18:33:54.081Z,99.90
2022-10-04T18:36:33.443Z,99.90
2022-10-04T18:39:18.827Z,99.90
2022-10-04T18:42:20.183Z,99.90
2022-10-04T18:44:58.913Z,99.90
2022-10-04T18:47:46.075Z,99.90
2022-10-04T18:50:20.257Z,99.90
2022-10-04T18:52:49.942Z,99.90
2022-10-04T18:55:48.721Z,99.90
2022-10-04T18:59:09.470Z,99.90
2022-10-04T19:02:02.951Z,99.90
2022-10-04T19:04:45.819Z,99.90
2022-10-04T19:07:44.549Z,99.90
2022-10-04T19:10:33.712Z,99.90
2022-10-04T19:13:26.950Z,99.90
2022-10-04T19:16:16.640Z,99.90
2022-10-04T19:19:02.901Z,99.90
2022-10-04T19:21:54.915Z,99.90
2022-10-04T19:24:57.984Z,99.90
2022-10-04T19:27:36.716Z,99.90
2022-10-04T19:30:25.020Z,99.90
2022-10-04T19:32:51.775Z,99.90
2022-10-04T19:35:29.853Z,99.90
2022-10-04T19:38:30.659Z,99.90
2022-10-04T19:41:23.044Z,99.90
2022-10-04T19:44:29.983Z,99.90
2022-10-04T19:47:23.607Z,99.90
2022-10-04T19:50:03.876Z,99.90
2022-10-04T19:52:44.635Z,99.90
2022-10-04T19:55:27.518Z,99.90
2022-10-04T19:58:18.408Z,99.90
2022-10-04T20:00:45.259Z,99.90
2022-10-04T20:03:12.946Z,99.90
2022-10-04T20:06:03.565Z,99.90
2022-10-04T20:08:56.738Z,99.90
2022-10-04T20:11:48.764Z,99.90
2022-10-04T20:14:15.526Z,99.90
2022-10-04T20:16:49.295Z,99.90
2022-10-04T20:19:28.880Z,99.90
2022-10-04T20:22:25.075Z,99.90
2022-10-04T20:24:51.922Z,99.90
2022-10-04T20:27:28.695Z,99.90
2022-10-04T20:29:57.065Z,99.90
2022-10-04T20:32:26.970Z,99.90
2022-10-04T20:34:56.349Z,99.90
2022-10-04T20:38:02.945Z,99.90
2022-10-04T20:40:46.142Z,99.90
2022-10-04T20:43:15.942Z,99.90
2022-10-04T20:45:51.651Z,99.90
2022-10-04T20:48:27.397Z,99.90
2022-10-04T20:50:55.917Z,99.90
2022-10-04T20:53:30.272Z,99.90
2022-10-04T20:56:11.728Z,99.90
2022-10-04T20:58:40.346Z,99.90
2022-10-04T21:01:38.060Z,99.90
2022-10-04T21:04:42.637Z,99.90
2022-10-04T21:07:32.883Z,99.90
2022-10-04T21:10:16.852Z,99.90
2022-10-04T21:12:43.854Z,99.90
2022-10-04T21:15:16.573Z,99.90
2022-10-04T21:18:07.785Z,99.90
2022-10-04T21:20:51.462Z,99.90
2022-10-04T21:23:30.231Z,99.90
2022-10-04T21:26:23.463Z,99.90
2022-10-04T21:28:57.206Z,99.90
2022-10-04T21:31:25.282Z,99.90
2022-10-04T21:33:52.270Z,99.90
2022-10-04T21:36:19.192Z,99.90
2022-10-04T21:38:46.035Z,99.90
2022-10-04T21:41:13.244Z,99.90
2022-10-04T21:43:40.135Z,99.90
2022-10-04T21:46:07.064Z,99.90
2022-10-04T21:48:33.937Z,99.90
2022-10-04T21:51:00.731Z,99.90
2022-10-04T21:53:27.583Z,99.90
2022-10-04T21:55:54.599Z,99.90
2022-10-04T21:58:21.557Z,99.90
2022-10-04T22:00:48.535Z,99.90
2022-10-04T22:03:15.479Z,99.90
2022-10-04T22:05:42.478Z,99.90
2022-10-04T22:08:09.292Z,99.90
2022-10-04T22:10:36.356Z,99.90
2022-10-04T22:13:03.230Z,99.90
2022-10-04T22:15:30.291Z,99.90
2022-10-04T22:17:57.788Z,99.90
2022-10-04T22:20:26.098Z,99.90
2022-10-04T22:22:55.587Z,99.90
2022-10-04T22:25:25.647Z,99.90
2022-10-04T22:27:53.632Z,99.90
2022-10-04T22:30:25.671Z,99.90
2022-10-04T22:32:56.323Z,99.90
2022-10-04T22:35:23.812Z,99.90
2022-10-04T22:37:51.373Z,99.90
2022-10-04T22:40:24.587Z,99.90
2022-10-04T22:42:57.087Z,99.90
2022-10-04T22:45:27.936Z,99.90
2022-10-04T22:47:58.038Z,99.90
2022-10-04T22:50:32.659Z,99.90
2022-10-04T22:53:17.218Z,99.90
2022-10-04T22:55:44.148Z,99.90
2022-10-04T22:58:15.379Z,99.90
2022-10-04T23:00:44.668Z,99.90
2022-10-04T23:03:27.258Z,99.90
2022-10-04T23:05:54.181Z,99.90
2022-10-04T23:08:21.212Z,99.90
2022-10-04T23:10:48.635Z,99.90
2022-10-04T23:13:15.444Z,99.90
2022-10-04T23:15:42.405Z,99.90
2022-10-04T23:18:16.048Z,99.90
2022-10-04T23:20:55.589Z,99.90
2022-10-04T23:23:22.583Z,99.90
2022-10-04T23:25:50.250Z,99.90
2022-10-04T23:28:24.383Z,99.90
2022-10-04T23:31:11.380Z,99.90
2022-10-04T23:33:38.390Z,99.90
2022-10-04T23:36:13.618Z,99.90
2022-10-04T23:38:57.131Z,99.90
2022-10-04T23:41:23.992Z,99.90
2022-10-04T23:43:51.027Z,99.90
2022-10-04T23:46:24.455Z,99.90
2022-10-04T23:48:51.545Z,99.90
2022-10-04T23:51:19.997Z,99.90
2022-10-04T23:53:49.210Z,99.90
2022-10-04T23:56:25.401Z,99.90
2022-10-04T23:58:55.987Z,99.90
